Terminal Aerodrome Forecast
Issued by NWS Charleston, WV

Current Version | Previous Version | Graphics & Text | Print | Product List | Glossary On
Versions: 1 2 3 4 5 6 7 8 9 10 11 12 13 14 15 16 17 18 19 20 21 22 23 24 25
000
FTUS41 KRLX 021457 AAA
TAFBKW
TAF AMD
KBKW 021457Z 0215/0312 25007KT P6SM OVC025
     FM021900 25010G16KT P6SM -SHRA VCTS BKN035CB
     FM022100 29006KT 5SM SHRA VCTS OVC025CB
     FM030100 29003KT 2SM SHRA BR VCTS BKN007 OVC015CB=

USA.gov is the U.S. government's official web portal to all federal, state and local government web resources and services.